Terminal Aerodrome Forecast
Issued by NWS Sioux Falls, SD

Home | Current Version | Previous Version | Graphics & Text | Print | Product List | Glossary On
Versions: 1 2 3 4 5 6 7 8 9 10 11 12 13 14 15 16 17 18 19
000
FTUS43 KFSD 120900 AAB
TAFFSD
TAF AMD
KFSD 120909Z 1209/1306 17005KT 4SM BR SCT008 OVC025
      TEMPO 1210/1213 6SM SHRA BKN010
     FM121300 09005KT P6SM SHRA SCT010 OVC025
     FM121800 01005KT P6SM SCT040 BKN090=

USA.gov is the U.S. government's official web portal to all federal, state and local government web resources and services.